If you wish to contribute or participate in the discussions about articles you are invited to join SKYbrary as a registered user

 Actions

Fuerteventura

From SKYbrary Wiki

GCFV /
Revision as of 18:58, 28 November 2011 by Timo.Kouwenhoven (talk | contribs) (Created page with "{{Airport |Airport_Name=Fuerteventura |ICAO_Region=EUR |ICAO_Territory=GC |Location=Puerto del Rosario |Coordinates=28.4517861, -13.865153400000054 }} {{APT Show Hazards |Switch=...")
(diff) ← Older revision | Latest revision (diff) | Newer revision → (diff)
Airport
ICAO: GCFV
Summary
Name Fuerteventura
Region Europe
Territory Canary Islands ES.gif
Location Puerto del Rosario
Serving
Coordinates 28° 27' 6.43" N, 13° 51' 54.55" W
Runways
Designator Length Width Surface ROPS
1/19 2400 m7,874.016 ft
45 m147.638 ft
ASP yes/yes


METAR
Observation GCFV 180130Z AUTO 35007KT 9999 FEW022 SCT035 21/17 Q1020
Station Fuerteventura / Aeropuerto
Date/Time 18 October 2019 01:30:00
Wind direction 350°
Wind speed 07 kts
Lowest cloud amount few clouds
Temperature 21°C
Dew point 17°C
Humidity 77%
QNH 1020 hPa
Weather condition n/a

WX
Tag(s) Volcanic Ash

Fuerteventura Airport (IATA: FUE) also known as El Matorral Airport serves the Spanish island of Fuerteventura and is situated in El Matorral site, 5 km2.7 nm
5,000 m
16,404.199 ft
southwest of the capital city Puerto del Rosario.